sensor_id;sensor_type;location;lat;lon;timestamp;P1;durP1;ratioP1;P2;durP2;ratioP2
72201;SDS011;60105;54.956;73.412;2023-05-29T00:02:08;21.98;;;9.07;;
72201;SDS011;60105;54.956;73.412;2023-05-29T00:05:10;16.63;;;9.07;;
72201;SDS011;60105;54.956;73.412;2023-05-29T00:08:13;18.27;;;8.00;;
72201;SDS011;60105;54.956;73.412;2023-05-29T00:11:14;14.43;;;7.00;;
72201;SDS011;60105;54.956;73.412;2023-05-29T00:14:15;12.57;;;7.40;;
72201;SDS011;60105;54.956;73.412;2023-05-29T00:17:55;11.95;;;7.80;;
72201;SDS011;60105;54.956;73.412;2023-05-29T00:20:57;17.90;;;8.43;;
72201;SDS011;60105;54.956;73.412;2023-05-29T00:23:58;18.93;;;9.43;;
72201;SDS011;60105;54.956;73.412;2023-05-29T00:26:59;14.52;;;8.45;;
72201;SDS011;60105;54.956;73.412;2023-05-29T00:30:02;19.60;;;9.73;;
72201;SDS011;60105;54.956;73.412;2023-05-29T00:33:05;15.02;;;8.45;;
72201;SDS011;60105;54.956;73.412;2023-05-29T00:36:06;15.57;;;8.63;;
72201;SDS011;60105;54.956;73.412;2023-05-29T00:39:08;17.47;;;9.40;;
72201;SDS011;60105;54.956;73.412;2023-05-29T00:42:10;18.20;;;9.45;;
72201;SDS011;60105;54.956;73.412;2023-05-29T00:45:11;18.43;;;9.30;;
72201;SDS011;60105;54.956;73.412;2023-05-29T00:48:14;21.35;;;10.57;;
72201;SDS011;60105;54.956;73.412;2023-05-29T00:51:16;19.80;;;9.50;;
72201;SDS011;60105;54.956;73.412;2023-05-29T00:54:26;28.20;;;9.43;;
72201;SDS011;60105;54.956;73.412;2023-05-29T00:57:28;20.13;;;8.86;;
72201;SDS011;60105;54.956;73.412;2023-05-29T01:00:30;17.35;;;9.63;;
72201;SDS011;60105;54.956;73.412;2023-05-29T01:03:33;27.07;;;9.60;;
72201;SDS011;60105;54.956;73.412;2023-05-29T01:06:36;15.48;;;8.52;;
72201;SDS011;60105;54.956;73.412;2023-05-29T01:09:37;17.13;;;8.45;;
72201;SDS011;60105;54.956;73.412;2023-05-29T01:16:03;14.13;;;7.80;;
72201;SDS011;60105;54.956;73.412;2023-05-29T01:29:15;13.43;;;7.07;;
72201;SDS011;60105;54.956;73.412;2023-05-29T01:32:55;16.73;;;7.38;;
72201;SDS011;60105;54.956;73.412;2023-05-29T01:35:57;10.50;;;6.60;;
72201;SDS011;60105;54.956;73.412;2023-05-29T01:38:59;14.33;;;7.20;;
72201;SDS011;60105;54.956;73.412;2023-05-29T01:42:00;18.02;;;7.28;;
72201;SDS011;60105;54.956;73.412;2023-05-29T01:45:03;13.48;;;6.80;;
72201;SDS011;60105;54.956;73.412;2023-05-29T01:48:07;13.73;;;7.80;;
72201;SDS011;60105;54.956;73.412;2023-05-29T01:51:09;14.18;;;7.22;;
72201;SDS011;60105;54.956;73.412;2023-05-29T01:54:13;19.40;;;8.73;;
72201;SDS011;60105;54.956;73.412;2023-05-29T01:57:24;23.40;;;9.30;;
72201;SDS011;60105;54.956;73.412;2023-05-29T02:00:27;15.13;;;9.50;;
72201;SDS011;60105;54.956;73.412;2023-05-29T02:03:29;15.60;;;9.27;;
72201;SDS011;60105;54.956;73.412;2023-05-29T02:06:30;17.30;;;7.80;;
72201;SDS011;60105;54.956;73.412;2023-05-29T02:09:34;24.50;;;8.13;;
72201;SDS011;60105;54.956;73.412;2023-05-29T02:15:58;15.65;;;8.98;;
72201;SDS011;60105;54.956;73.412;2023-05-29T02:19:01;25.27;;;7.88;;
72201;SDS011;60105;54.956;73.412;2023-05-29T02:22:55;16.17;;;7.75;;
72201;SDS011;60105;54.956;73.412;2023-05-29T02:25:56;13.75;;;7.38;;
72201;SDS011;60105;54.956;73.412;2023-05-29T02:28:58;11.95;;;6.22;;
72201;SDS011;60105;54.956;73.412;2023-05-29T02:32:01;13.93;;;6.60;;
72201;SDS011;60105;54.956;73.412;2023-05-29T02:35:02;14.00;;;6.97;;
72201;SDS011;60105;54.956;73.412;2023-05-29T02:38:04;15.70;;;7.63;;
72201;SDS011;60105;54.956;73.412;2023-05-29T02:41:05;22.23;;;7.20;;
72201;SDS011;60105;54.956;73.412;2023-05-29T02:44:06;18.73;;;7.03;;
72201;SDS011;60105;54.956;73.412;2023-05-29T02:47:08;16.38;;;7.20;;
72201;SDS011;60105;54.956;73.412;2023-05-29T02:50:09;14.03;;;6.40;;
72201;SDS011;60105;54.956;73.412;2023-05-29T02:53:11;13.60;;;6.60;;
72201;SDS011;60105;54.956;73.412;2023-05-29T02:56:12;14.43;;;6.43;;
72201;SDS011;60105;54.956;73.412;2023-05-29T02:59:13;12.87;;;6.07;;
72201;SDS011;60105;54.956;73.412;2023-05-29T03:02:55;12.20;;;5.28;;
72201;SDS011;60105;54.956;73.412;2023-05-29T03:05:59;16.23;;;5.70;;
72201;SDS011;60105;54.956;73.412;2023-05-29T03:09:01;9.57;;;6.37;;
72201;SDS011;60105;54.956;73.412;2023-05-29T03:12:05;13.13;;;6.03;;
72201;SDS011;60105;54.956;73.412;2023-05-29T03:15:08;10.60;;;5.77;;
72201;SDS011;60105;54.956;73.412;2023-05-29T03:18:09;11.35;;;4.97;;
72201;SDS011;60105;54.956;73.412;2023-05-29T03:21:11;12.95;;;5.07;;
72201;SDS011;60105;54.956;73.412;2023-05-29T03:24:12;13.33;;;5.53;;
72201;SDS011;60105;54.956;73.412;2023-05-29T03:27:24;12.73;;;5.38;;
72201;SDS011;60105;54.956;73.412;2023-05-29T03:30:34;13.15;;;5.80;;
72201;SDS011;60105;54.956;73.412;2023-05-29T03:33:36;10.83;;;5.10;;
72201;SDS011;60105;54.956;73.412;2023-05-29T03:36:57;14.35;;;5.63;;
72201;SDS011;60105;54.956;73.412;2023-05-29T03:40:01;9.27;;;5.50;;
72201;SDS011;60105;54.956;73.412;2023-05-29T03:43:04;13.18;;;4.72;;
72201;SDS011;60105;54.956;73.412;2023-05-29T03:46:07;13.67;;;5.73;;
72201;SDS011;60105;54.956;73.412;2023-05-29T03:49:10;9.70;;;5.63;;
72201;SDS011;60105;54.956;73.412;2023-05-29T03:52:55;10.54;;;5.36;;
72201;SDS011;60105;54.956;73.412;2023-05-29T03:55:57;12.13;;;5.30;;
72201;SDS011;60105;54.956;73.412;2023-05-29T03:58:59;13.37;;;5.70;;
72201;SDS011;60105;54.956;73.412;2023-05-29T04:02:00;13.88;;;5.35;;
72201;SDS011;60105;54.956;73.412;2023-05-29T04:05:01;9.23;;;4.80;;
72201;SDS011;60105;54.956;73.412;2023-05-29T04:08:03;11.43;;;5.03;;
72201;SDS011;60105;54.956;73.412;2023-05-29T04:11:07;15.80;;;4.70;;
72201;SDS011;60105;54.956;73.412;2023-05-29T04:14:10;10.93;;;4.78;;
72201;SDS011;60105;54.956;73.412;2023-05-29T04:17:55;8.04;;;4.63;;
72201;SDS011;60105;54.956;73.412;2023-05-29T04:20:57;10.52;;;4.93;;
72201;SDS011;60105;54.956;73.412;2023-05-29T04:23:58;7.85;;;4.60;;
72201;SDS011;60105;54.956;73.412;2023-05-29T04:27:00;8.83;;;4.77;;
72201;SDS011;60105;54.956;73.412;2023-05-29T04:30:04;9.93;;;4.87;;
72201;SDS011;60105;54.956;73.412;2023-05-29T04:33:12;9.67;;;4.77;;
72201;SDS011;60105;54.956;73.412;2023-05-29T04:36:23;8.10;;;5.05;;
72201;SDS011;60105;54.956;73.412;2023-05-29T04:39:38;11.77;;;4.80;;
72201;SDS011;60105;54.956;73.412;2023-05-29T04:45:58;8.60;;;4.78;;
72201;SDS011;60105;54.956;73.412;2023-05-29T04:49:00;9.38;;;5.38;;
72201;SDS011;60105;54.956;73.412;2023-05-29T04:52:03;11.65;;;4.97;;
72201;SDS011;60105;54.956;73.412;2023-05-29T04:55:06;9.90;;;4.60;;
72201;SDS011;60105;54.956;73.412;2023-05-29T04:58:08;12.23;;;5.40;;
72201;SDS011;60105;54.956;73.412;2023-05-29T05:01:09;12.43;;;6.07;;
72201;SDS011;60105;54.956;73.412;2023-05-29T05:04:14;10.20;;;5.70;;
72201;SDS011;60105;54.956;73.412;2023-05-29T05:07:55;13.66;;;5.58;;
72201;SDS011;60105;54.956;73.412;2023-05-29T05:10:57;14.60;;;5.53;;
72201;SDS011;60105;54.956;73.412;2023-05-29T05:13:59;13.35;;;6.55;;
72201;SDS011;60105;54.956;73.412;2023-05-29T05:17:02;10.17;;;5.60;;
72201;SDS011;60105;54.956;73.412;2023-05-29T05:20:04;11.40;;;5.40;;
72201;SDS011;60105;54.956;73.412;2023-05-29T05:23:07;10.00;;;5.63;;
72201;SDS011;60105;54.956;73.412;2023-05-29T05:26:09;13.38;;;6.47;;
72201;SDS011;60105;54.956;73.412;2023-05-29T05:29:10;10.98;;;5.65;;
72201;SDS011;60105;54.956;73.412;2023-05-29T05:32:55;11.72;;;5.40;;
72201;SDS011;60105;54.956;73.412;2023-05-29T05:35:57;14.03;;;6.70;;
72201;SDS011;60105;54.956;73.412;2023-05-29T05:39:00;11.80;;;5.80;;
72201;SDS011;60105;54.956;73.412;2023-05-29T05:42:01;16.58;;;7.00;;
72201;SDS011;60105;54.956;73.412;2023-05-29T05:45:32;22.63;;;7.50;;
72201;SDS011;60105;54.956;73.412;2023-05-29T05:48:34;17.88;;;7.03;;
72201;SDS011;60105;54.956;73.412;2023-05-29T05:51:35;17.40;;;7.32;;
72201;SDS011;60105;54.956;73.412;2023-05-29T05:54:36;14.93;;;7.07;;
72201;SDS011;60105;54.956;73.412;2023-05-29T05:57:38;17.73;;;7.77;;
72201;SDS011;60105;54.956;73.412;2023-05-29T06:00:39;18.17;;;6.90;;
72201;SDS011;60105;54.956;73.412;2023-05-29T06:03:41;18.23;;;7.50;;
72201;SDS011;60105;54.956;73.412;2023-05-29T06:06:43;20.45;;;7.30;;
72201;SDS011;60105;54.956;73.412;2023-05-29T06:09:45;14.40;;;6.63;;
72201;SDS011;60105;54.956;73.412;2023-05-29T06:16:03;16.33;;;6.63;;
72201;SDS011;60105;54.956;73.412;2023-05-29T06:19:05;13.20;;;6.07;;
72201;SDS011;60105;54.956;73.412;2023-05-29T06:22:55;13.10;;;5.72;;
72201;SDS011;60105;54.956;73.412;2023-05-29T06:25:57;18.20;;;6.87;;
72201;SDS011;60105;54.956;73.412;2023-05-29T06:28:59;17.02;;;7.15;;
72201;SDS011;60105;54.956;73.412;2023-05-29T06:32:00;15.57;;;6.93;;
72201;SDS011;60105;54.956;73.412;2023-05-29T06:35:01;14.65;;;6.78;;
72201;SDS011;60105;54.956;73.412;2023-05-29T06:38:03;17.43;;;6.23;;
72201;SDS011;60105;54.956;73.412;2023-05-29T06:41:05;14.07;;;7.03;;
72201;SDS011;60105;54.956;73.412;2023-05-29T06:44:08;16.08;;;6.50;;
72201;SDS011;60105;54.956;73.412;2023-05-29T06:47:09;14.15;;;6.50;;
72201;SDS011;60105;54.956;73.412;2023-05-29T06:50:11;21.27;;;7.13;;
72201;SDS011;60105;54.956;73.412;2023-05-29T06:53:12;15.40;;;6.17;;
72201;SDS011;60105;54.956;73.412;2023-05-29T06:56:22;16.85;;;6.68;;
72201;SDS011;60105;54.956;73.412;2023-05-29T06:59:24;16.42;;;6.55;;
72201;SDS011;60105;54.956;73.412;2023-05-29T07:02:55;19.75;;;6.78;;
72201;SDS011;60105;54.956;73.412;2023-05-29T07:05:57;20.38;;;7.80;;
72201;SDS011;60105;54.956;73.412;2023-05-29T07:08:58;21.30;;;7.50;;
72201;SDS011;60105;54.956;73.412;2023-05-29T07:11:59;21.20;;;7.63;;
72201;SDS011;60105;54.956;73.412;2023-05-29T07:15:01;19.90;;;8.40;;
72201;SDS011;60105;54.956;73.412;2023-05-29T07:18:04;17.90;;;6.80;;
72201;SDS011;60105;54.956;73.412;2023-05-29T07:21:06;26.83;;;7.55;;
72201;SDS011;60105;54.956;73.412;2023-05-29T07:24:07;17.63;;;7.38;;
72201;SDS011;60105;54.956;73.412;2023-05-29T07:27:10;19.47;;;7.73;;
72201;SDS011;60105;54.956;73.412;2023-05-29T07:30:11;18.20;;;7.87;;
72201;SDS011;60105;54.956;73.412;2023-05-29T07:33:13;21.73;;;7.45;;
72201;SDS011;60105;54.956;73.412;2023-05-29T07:36:17;19.92;;;7.57;;
72201;SDS011;60105;54.956;73.412;2023-05-29T07:39:20;18.08;;;7.53;;
72201;SDS011;60105;54.956;73.412;2023-05-29T07:42:55;23.75;;;8.65;;
72201;SDS011;60105;54.956;73.412;2023-05-29T07:45:57;17.63;;;8.05;;
72201;SDS011;60105;54.956;73.412;2023-05-29T07:48:59;19.20;;;6.83;;
72201;SDS011;60105;54.956;73.412;2023-05-29T07:52:00;19.33;;;7.40;;
72201;SDS011;60105;54.956;73.412;2023-05-29T07:55:03;18.97;;;7.70;;
72201;SDS011;60105;54.956;73.412;2023-05-29T07:58:05;16.08;;;6.95;;
72201;SDS011;60105;54.956;73.412;2023-05-29T08:01:07;15.65;;;6.78;;
72201;SDS011;60105;54.956;73.412;2023-05-29T08:04:10;14.93;;;5.53;;
72201;SDS011;60105;54.956;73.412;2023-05-29T08:07:55;16.19;;;7.08;;
72201;SDS011;60105;54.956;73.412;2023-05-29T08:10:59;15.95;;;6.75;;
72201;SDS011;60105;54.956;73.412;2023-05-29T08:14:01;15.00;;;6.53;;
72201;SDS011;60105;54.956;73.412;2023-05-29T08:17:02;13.93;;;6.78;;
72201;SDS011;60105;54.956;73.412;2023-05-29T08:20:04;11.57;;;6.43;;
72201;SDS011;60105;54.956;73.412;2023-05-29T08:23:06;11.40;;;6.07;;
72201;SDS011;60105;54.956;73.412;2023-05-29T08:26:08;18.52;;;7.20;;
72201;SDS011;60105;54.956;73.412;2023-05-29T08:29:09;17.07;;;6.80;;
72201;SDS011;60105;54.956;73.412;2023-05-29T08:32:55;16.21;;;6.51;;
72201;SDS011;60105;54.956;73.412;2023-05-29T08:35:57;15.97;;;6.33;;
72201;SDS011;60105;54.956;73.412;2023-05-29T08:38:59;16.05;;;6.28;;
72201;SDS011;60105;54.956;73.412;2023-05-29T08:45:05;13.10;;;6.23;;
72201;SDS011;60105;54.956;73.412;2023-05-29T08:48:08;18.65;;;6.05;;
72201;SDS011;60105;54.956;73.412;2023-05-29T08:51:11;14.07;;;5.87;;
72201;SDS011;60105;54.956;73.412;2023-05-29T08:54:12;17.10;;;6.45;;
72201;SDS011;60105;54.956;73.412;2023-05-29T08:57:24;15.86;;;5.76;;
72201;SDS011;60105;54.956;73.412;2023-05-29T09:00:26;19.52;;;6.45;;
72201;SDS011;60105;54.956;73.412;2023-05-29T09:03:29;18.73;;;6.90;;
72201;SDS011;60105;54.956;73.412;2023-05-29T09:06:31;16.52;;;6.43;;
72201;SDS011;60105;54.956;73.412;2023-05-29T09:09:33;13.47;;;6.30;;
72201;SDS011;60105;54.956;73.412;2023-05-29T09:16:08;9.10;;;5.15;;
72201;SDS011;60105;54.956;73.412;2023-05-29T09:19:11;10.95;;;6.20;;
72201;SDS011;60105;54.956;73.412;2023-05-29T09:23:05;10.26;;;6.26;;
72201;SDS011;60105;54.956;73.412;2023-05-29T09:26:10;13.75;;;6.30;;
72201;SDS011;60105;54.956;73.412;2023-05-29T09:29:41;10.82;;;6.13;;
72201;SDS011;60105;54.956;73.412;2023-05-29T09:35:56;10.05;;;5.60;;
72201;SDS011;60105;54.956;73.412;2023-05-29T09:39:01;10.53;;;5.77;;
72201;SDS011;60105;54.956;73.412;2023-05-29T09:42:04;15.32;;;5.35;;
72201;SDS011;60105;54.956;73.412;2023-05-29T09:45:06;10.80;;;5.60;;
72201;SDS011;60105;54.956;73.412;2023-05-29T09:48:13;10.60;;;5.97;;
72201;SDS011;60105;54.956;73.412;2023-05-29T09:51:19;12.80;;;6.13;;
72201;SDS011;60105;54.956;73.412;2023-05-29T09:54:26;14.50;;;6.10;;
72201;SDS011;60105;54.956;73.412;2023-05-29T09:57:30;16.85;;;6.38;;
72201;SDS011;60105;54.956;73.412;2023-05-29T10:00:31;13.35;;;6.40;;
72201;SDS011;60105;54.956;73.412;2023-05-29T10:03:33;13.67;;;6.03;;
72201;SDS011;60105;54.956;73.412;2023-05-29T10:06:35;13.18;;;6.43;;
72201;SDS011;60105;54.956;73.412;2023-05-29T10:09:44;14.87;;;5.80;;
72201;SDS011;60105;54.956;73.412;2023-05-29T10:15:57;14.98;;;6.40;;
72201;SDS011;60105;54.956;73.412;2023-05-29T10:19:01;14.35;;;6.40;;
72201;SDS011;60105;54.956;73.412;2023-05-29T10:22:08;14.55;;;6.07;;
72201;SDS011;60105;54.956;73.412;2023-05-29T10:25:11;13.67;;;5.90;;
72201;SDS011;60105;54.956;73.412;2023-05-29T10:28:14;16.30;;;6.15;;
72201;SDS011;60105;54.956;73.412;2023-05-29T10:31:24;12.03;;;6.27;;
72201;SDS011;60105;54.956;73.412;2023-05-29T10:34:56;16.77;;;5.70;;
72201;SDS011;60105;54.956;73.412;2023-05-29T10:38:16;11.90;;;6.47;;
72201;SDS011;60105;54.956;73.412;2023-05-29T10:50:56;12.10;;;6.10;;
72201;SDS011;60105;54.956;73.412;2023-05-29T10:54:00;11.20;;;6.45;;
72201;SDS011;60105;54.956;73.412;2023-05-29T10:57:01;12.30;;;6.50;;
72201;SDS011;60105;54.956;73.412;2023-05-29T11:00:04;10.17;;;6.20;;
72201;SDS011;60105;54.956;73.412;2023-05-29T11:03:08;15.43;;;6.97;;
72201;SDS011;60105;54.956;73.412;2023-05-29T11:06:18;12.93;;;6.30;;
72201;SDS011;60105;54.956;73.412;2023-05-29T11:16:13;14.32;;;6.25;;
72201;SDS011;60105;54.956;73.412;2023-05-29T11:19:20;11.77;;;6.47;;
72201;SDS011;60105;54.956;73.412;2023-05-29T11:25:59;11.43;;;6.33;;
72201;SDS011;60105;54.956;73.412;2023-05-29T11:29:04;12.23;;;6.53;;
72201;SDS011;60105;54.956;73.412;2023-05-29T11:32:55;11.73;;;6.21;;
72201;SDS011;60105;54.956;73.412;2023-05-29T11:36:02;15.65;;;6.68;;
72201;SDS011;60105;54.956;73.412;2023-05-29T11:39:04;11.47;;;6.40;;
72201;SDS011;60105;54.956;73.412;2023-05-29T11:42:06;10.82;;;6.47;;
72201;SDS011;60105;54.956;73.412;2023-05-29T11:45:13;11.57;;;5.65;;
72201;SDS011;60105;54.956;73.412;2023-05-29T11:48:16;13.13;;;6.37;;
72201;SDS011;60105;54.956;73.412;2023-05-29T11:51:17;10.85;;;6.45;;
72201;SDS011;60105;54.956;73.412;2023-05-29T11:54:19;10.40;;;6.73;;
72201;SDS011;60105;54.956;73.412;2023-05-29T11:57:24;14.55;;;6.15;;
72201;SDS011;60105;54.956;73.412;2023-05-29T12:00:28;14.27;;;6.77;;
72201;SDS011;60105;54.956;73.412;2023-05-29T12:03:41;13.60;;;6.47;;
72201;SDS011;60105;54.956;73.412;2023-05-29T12:06:43;9.20;;;5.75;;
72201;SDS011;60105;54.956;73.412;2023-05-29T12:09:45;15.17;;;6.73;;
72201;SDS011;60105;54.956;73.412;2023-05-29T12:12:58;15.10;;;6.70;;
72201;SDS011;60105;54.956;73.412;2023-05-29T12:16:03;12.87;;;6.80;;
72201;SDS011;60105;54.956;73.412;2023-05-29T12:19:06;13.48;;;6.25;;
72201;SDS011;60105;54.956;73.412;2023-05-29T12:22:07;11.50;;;6.85;;
72201;SDS011;60105;54.956;73.412;2023-05-29T12:25:09;14.30;;;6.40;;
72201;SDS011;60105;54.956;73.412;2023-05-29T12:28:17;17.75;;;7.20;;
72201;SDS011;60105;54.956;73.412;2023-05-29T12:31:28;15.48;;;7.28;;
72201;SDS011;60105;54.956;73.412;2023-05-29T12:34:34;14.25;;;6.95;;
72201;SDS011;60105;54.956;73.412;2023-05-29T12:40:56;14.83;;;6.67;;
72201;SDS011;60105;54.956;73.412;2023-05-29T12:43:58;14.52;;;7.18;;
72201;SDS011;60105;54.956;73.412;2023-05-29T12:47:01;18.58;;;7.60;;
72201;SDS011;60105;54.956;73.412;2023-05-29T12:50:18;16.90;;;7.37;;
72201;SDS011;60105;54.956;73.412;2023-05-29T12:53:27;14.87;;;7.17;;
72201;SDS011;60105;54.956;73.412;2023-05-29T12:56:29;12.77;;;7.90;;
72201;SDS011;60105;54.956;73.412;2023-05-29T12:59:31;20.00;;;7.57;;
72201;SDS011;60105;54.956;73.412;2023-05-29T13:05:56;15.18;;;7.85;;
72201;SDS011;60105;54.956;73.412;2023-05-29T13:08:59;14.20;;;7.30;;
72201;SDS011;60105;54.956;73.412;2023-05-29T13:12:00;18.83;;;7.93;;
72201;SDS011;60105;54.956;73.412;2023-05-29T13:15:02;12.37;;;7.50;;
72201;SDS011;60105;54.956;73.412;2023-05-29T13:18:04;11.53;;;5.67;;
72201;SDS011;60105;54.956;73.412;2023-05-29T13:21:06;16.52;;;6.95;;
72201;SDS011;60105;54.956;73.412;2023-05-29T13:24:07;14.13;;;7.57;;
72201;SDS011;60105;54.956;73.412;2023-05-29T13:27:09;14.93;;;8.13;;
72201;SDS011;60105;54.956;73.412;2023-05-29T13:30:10;19.77;;;9.10;;
72201;SDS011;60105;54.956;73.412;2023-05-29T13:33:13;20.38;;;8.68;;
72201;SDS011;60105;54.956;73.412;2023-05-29T13:36:14;18.35;;;9.60;;
72201;SDS011;60105;54.956;73.412;2023-05-29T13:39:15;20.87;;;9.63;;
72201;SDS011;60105;54.956;73.412;2023-05-29T13:42:55;20.88;;;10.38;;
72201;SDS011;60105;54.956;73.412;2023-05-29T13:45:57;15.68;;;8.82;;
72201;SDS011;60105;54.956;73.412;2023-05-29T13:49:00;19.75;;;9.18;;
72201;SDS011;60105;54.956;73.412;2023-05-29T13:52:02;17.73;;;8.37;;
72201;SDS011;60105;54.956;73.412;2023-05-29T13:55:05;17.15;;;8.10;;
72201;SDS011;60105;54.956;73.412;2023-05-29T13:58:09;15.43;;;7.57;;
72201;SDS011;60105;54.956;73.412;2023-05-29T14:01:10;16.27;;;8.60;;
72201;SDS011;60105;54.956;73.412;2023-05-29T14:04:11;17.55;;;9.25;;
72201;SDS011;60105;54.956;73.412;2023-05-29T14:07:55;24.76;;;8.93;;
72201;SDS011;60105;54.956;73.412;2023-05-29T14:10:56;13.30;;;8.63;;
72201;SDS011;60105;54.956;73.412;2023-05-29T14:13:58;18.17;;;8.82;;
72201;SDS011;60105;54.956;73.412;2023-05-29T14:16:59;16.02;;;8.43;;
72201;SDS011;60105;54.956;73.412;2023-05-29T14:20:01;16.43;;;8.50;;
72201;SDS011;60105;54.956;73.412;2023-05-29T14:23:05;15.63;;;8.35;;
72201;SDS011;60105;54.956;73.412;2023-05-29T14:26:09;12.85;;;8.68;;
72201;SDS011;60105;54.956;73.412;2023-05-29T14:29:11;17.03;;;9.27;;
72201;SDS011;60105;54.956;73.412;2023-05-29T14:32:55;16.59;;;9.21;;
72201;SDS011;60105;54.956;73.412;2023-05-29T14:35:56;17.33;;;9.68;;
72201;SDS011;60105;54.956;73.412;2023-05-29T14:38:58;16.70;;;8.82;;
72201;SDS011;60105;54.956;73.412;2023-05-29T14:41:59;15.33;;;9.03;;
72201;SDS011;60105;54.956;73.412;2023-05-29T14:45:01;13.98;;;9.15;;
72201;SDS011;60105;54.956;73.412;2023-05-29T14:48:03;15.07;;;8.20;;
72201;SDS011;60105;54.956;73.412;2023-05-29T14:51:05;31.77;;;10.33;;
72201;SDS011;60105;54.956;73.412;2023-05-29T14:54:06;16.03;;;9.03;;
72201;SDS011;60105;54.956;73.412;2023-05-29T14:57:09;17.25;;;11.07;;
72201;SDS011;60105;54.956;73.412;2023-05-29T15:00:11;13.70;;;9.75;;
72201;SDS011;60105;54.956;73.412;2023-05-29T15:03:12;21.70;;;9.70;;
72201;SDS011;60105;54.956;73.412;2023-05-29T15:06:14;15.13;;;9.45;;
72201;SDS011;60105;54.956;73.412;2023-05-29T15:09:15;18.27;;;9.07;;
72201;SDS011;60105;54.956;73.412;2023-05-29T15:12:55;20.60;;;9.50;;
72201;SDS011;60105;54.956;73.412;2023-05-29T15:15:59;17.67;;;9.98;;
72201;SDS011;60105;54.956;73.412;2023-05-29T15:19:04;25.30;;;10.97;;
72201;SDS011;60105;54.956;73.412;2023-05-29T15:22:06;24.92;;;10.90;;
72201;SDS011;60105;54.956;73.412;2023-05-29T15:25:07;28.10;;;10.65;;
72201;SDS011;60105;54.956;73.412;2023-05-29T15:28:09;23.90;;;10.67;;
72201;SDS011;60105;54.956;73.412;2023-05-29T15:31:10;25.00;;;11.77;;
72201;SDS011;60105;54.956;73.412;2023-05-29T15:34:11;20.57;;;10.93;;
72201;SDS011;60105;54.956;73.412;2023-05-29T15:37:55;20.71;;;11.30;;
72201;SDS011;60105;54.956;73.412;2023-05-29T15:40:57;25.52;;;12.13;;
72201;SDS011;60105;54.956;73.412;2023-05-29T15:43:58;30.77;;;14.97;;
72201;SDS011;60105;54.956;73.412;2023-05-29T15:46:59;21.52;;;12.65;;
72201;SDS011;60105;54.956;73.412;2023-05-29T15:50:01;21.05;;;13.15;;
72201;SDS011;60105;54.956;73.412;2023-05-29T15:53:03;19.07;;;11.70;;
72201;SDS011;60105;54.956;73.412;2023-05-29T15:56:05;22.33;;;13.00;;
72201;SDS011;60105;54.956;73.412;2023-05-29T15:59:06;20.17;;;12.03;;
72201;SDS011;60105;54.956;73.412;2023-05-29T16:02:07;25.52;;;12.70;;
72201;SDS011;60105;54.956;73.412;2023-05-29T16:05:09;19.77;;;11.90;;
72201;SDS011;60105;54.956;73.412;2023-05-29T16:08:11;21.73;;;11.85;;
72201;SDS011;60105;54.956;73.412;2023-05-29T16:11:12;17.17;;;10.48;;
72201;SDS011;60105;54.956;73.412;2023-05-29T16:14:14;19.90;;;10.30;;
72201;SDS011;60105;54.956;73.412;2023-05-29T16:17:55;16.68;;;9.94;;
72201;SDS011;60105;54.956;73.412;2023-05-29T16:20:56;18.47;;;9.00;;
72201;SDS011;60105;54.956;73.412;2023-05-29T16:23:59;17.27;;;10.07;;
72201;SDS011;60105;54.956;73.412;2023-05-29T16:27:02;24.80;;;9.47;;
72201;SDS011;60105;54.956;73.412;2023-05-29T16:30:04;17.77;;;10.03;;
72201;SDS011;60105;54.956;73.412;2023-05-29T16:33:06;17.87;;;10.87;;
72201;SDS011;60105;54.956;73.412;2023-05-29T16:36:08;19.37;;;8.80;;
72201;SDS011;60105;54.956;73.412;2023-05-29T16:39:09;16.10;;;8.63;;
72201;SDS011;60105;54.956;73.412;2023-05-29T16:42:55;15.40;;;8.48;;
72201;SDS011;60105;54.956;73.412;2023-05-29T16:45:56;18.15;;;9.20;;
72201;SDS011;60105;54.956;73.412;2023-05-29T16:48:58;15.47;;;9.53;;
72201;SDS011;60105;54.956;73.412;2023-05-29T16:52:00;14.35;;;9.73;;
72201;SDS011;60105;54.956;73.412;2023-05-29T16:55:02;18.43;;;9.00;;
72201;SDS011;60105;54.956;73.412;2023-05-29T16:58:04;15.43;;;8.63;;
72201;SDS011;60105;54.956;73.412;2023-05-29T17:01:05;13.95;;;7.93;;
72201;SDS011;60105;54.956;73.412;2023-05-29T17:04:08;14.57;;;9.07;;
72201;SDS011;60105;54.956;73.412;2023-05-29T17:07:55;14.25;;;9.25;;
72201;SDS011;60105;54.956;73.412;2023-05-29T17:10:56;17.85;;;9.60;;
72201;SDS011;60105;54.956;73.412;2023-05-29T17:13:58;18.23;;;10.40;;
72201;SDS011;60105;54.956;73.412;2023-05-29T17:17:00;14.43;;;9.23;;
72201;SDS011;60105;54.956;73.412;2023-05-29T17:20:01;18.25;;;9.70;;
72201;SDS011;60105;54.956;73.412;2023-05-29T17:23:05;13.80;;;8.38;;
72201;SDS011;60105;54.956;73.412;2023-05-29T17:26:06;15.95;;;9.45;;
72201;SDS011;60105;54.956;73.412;2023-05-29T17:29:07;16.30;;;9.27;;
72201;SDS011;60105;54.956;73.412;2023-05-29T17:32:09;14.35;;;9.30;;
72201;SDS011;60105;54.956;73.412;2023-05-29T17:35:10;15.60;;;9.10;;
72201;SDS011;60105;54.956;73.412;2023-05-29T17:38:13;17.27;;;9.00;;
72201;SDS011;60105;54.956;73.412;2023-05-29T17:41:15;15.32;;;8.60;;
72201;SDS011;60105;54.956;73.412;2023-05-29T17:44:16;17.63;;;8.63;;
72201;SDS011;60105;54.956;73.412;2023-05-29T17:47:55;16.05;;;8.18;;
72201;SDS011;60105;54.956;73.412;2023-05-29T17:50:57;14.10;;;8.77;;
72201;SDS011;60105;54.956;73.412;2023-05-29T17:53:58;12.80;;;9.00;;
72201;SDS011;60105;54.956;73.412;2023-05-29T17:56:59;15.25;;;8.20;;
72201;SDS011;60105;54.956;73.412;2023-05-29T18:00:02;13.80;;;7.80;;
72201;SDS011;60105;54.956;73.412;2023-05-29T18:03:13;16.83;;;8.97;;
72201;SDS011;60105;54.956;73.412;2023-05-29T18:06:14;20.30;;;9.23;;
72201;SDS011;60105;54.956;73.412;2023-05-29T18:09:16;18.95;;;9.55;;
72201;SDS011;60105;54.956;73.412;2023-05-29T18:12:55;18.70;;;9.93;;
72201;SDS011;60105;54.956;73.412;2023-05-29T18:15:56;17.40;;;10.90;;
72201;SDS011;60105;54.956;73.412;2023-05-29T18:18:57;18.15;;;10.13;;
72201;SDS011;60105;54.956;73.412;2023-05-29T18:21:59;21.50;;;10.70;;
72201;SDS011;60105;54.956;73.412;2023-05-29T18:25:00;22.48;;;12.77;;
72201;SDS011;60105;54.956;73.412;2023-05-29T18:28:03;28.25;;;12.65;;
72201;SDS011;60105;54.956;73.412;2023-05-29T18:31:04;16.07;;;9.47;;
72201;SDS011;60105;54.956;73.412;2023-05-29T18:34:05;16.93;;;10.13;;
72201;SDS011;60105;54.956;73.412;2023-05-29T18:37:07;19.73;;;9.95;;
72201;SDS011;60105;54.956;73.412;2023-05-29T18:40:08;21.20;;;10.52;;
72201;SDS011;60105;54.956;73.412;2023-05-29T18:43:10;23.37;;;11.10;;
72201;SDS011;60105;54.956;73.412;2023-05-29T18:46:11;21.83;;;12.63;;
72201;SDS011;60105;54.956;73.412;2023-05-29T18:49:13;24.30;;;14.20;;
72201;SDS011;60105;54.956;73.412;2023-05-29T18:52:55;24.16;;;13.34;;
72201;SDS011;60105;54.956;73.412;2023-05-29T18:56:06;23.13;;;12.90;;
72201;SDS011;60105;54.956;73.412;2023-05-29T18:59:08;19.63;;;11.30;;
72201;SDS011;60105;54.956;73.412;2023-05-29T19:02:09;20.40;;;11.88;;
72201;SDS011;60105;54.956;73.412;2023-05-29T19:05:10;23.87;;;12.60;;
72201;SDS011;60105;54.956;73.412;2023-05-29T19:08:12;19.95;;;10.88;;
72201;SDS011;60105;54.956;73.412;2023-05-29T19:11:13;19.53;;;10.70;;